Terminal Aerodrome Forecast
Issued by NWS

Home | Current Version | Previous Version | Text Only | Print | Product List | Glossary On
Versions: 1 2 3 4 5 6 7 8 9 10 11 12 13 14 15 16 17 18
000
FTUS45 KMSO 212320
TAFSMN
TAF
KSMN 212320Z 2200/2224 VRB04KT P6SM SCT030
     FM220900 19005KT P6SM BKN060
     FM221100 VRB03KT P6SM VCSH BKN040
     FM221300 VRB03KT 5SM -SN SCT020 OVC030
     FM221500 35006KT P6SM VCSH BKN050=

USA.gov is the U.S. government's official web portal to all federal, state and local government web resources and services.